sensor_id;sensor_type;location;lat;lon;timestamp;P1;durP1;ratioP1;P2;durP2;ratioP2
74510;SDS011;62991;50.040;18.400;2022-09-27T00:02:37;22.70;;;9.07;;
74510;SDS011;62991;50.040;18.400;2022-09-27T00:05:38;20.83;;;9.45;;
74510;SDS011;62991;50.040;18.400;2022-09-27T00:08:40;19.20;;;9.23;;
74510;SDS011;62991;50.040;18.400;2022-09-27T00:11:42;18.85;;;8.80;;
74510;SDS011;62991;50.040;18.400;2022-09-27T00:14:43;17.23;;;8.55;;
74510;SDS011;62991;50.040;18.400;2022-09-27T00:17:43;19.30;;;8.13;;
74510;SDS011;62991;50.040;18.400;2022-09-27T00:20:44;13.38;;;7.00;;
74510;SDS011;62991;50.040;18.400;2022-09-27T00:23:45;17.88;;;8.40;;
74510;SDS011;62991;50.040;18.400;2022-09-27T00:26:46;13.93;;;7.45;;
74510;SDS011;62991;50.040;18.400;2022-09-27T00:29:48;15.27;;;7.85;;
74510;SDS011;62991;50.040;18.400;2022-09-27T00:32:48;16.15;;;7.75;;
74510;SDS011;62991;50.040;18.400;2022-09-27T00:35:51;14.25;;;6.50;;
74510;SDS011;62991;50.040;18.400;2022-09-27T00:38:52;19.17;;;7.63;;
74510;SDS011;62991;50.040;18.400;2022-09-27T00:41:53;14.73;;;6.47;;
74510;SDS011;62991;50.040;18.400;2022-09-27T00:45:03;13.32;;;6.90;;
74510;SDS011;62991;50.040;18.400;2022-09-27T00:48:06;10.52;;;5.85;;
74510;SDS011;62991;50.040;18.400;2022-09-27T00:51:06;14.15;;;7.20;;
74510;SDS011;62991;50.040;18.400;2022-09-27T00:54:09;14.57;;;7.20;;
74510;SDS011;62991;50.040;18.400;2022-09-27T00:57:12;17.30;;;7.50;;
74510;SDS011;62991;50.040;18.400;2022-09-27T01:00:13;14.80;;;7.13;;
74510;SDS011;62991;50.040;18.400;2022-09-27T01:03:19;14.77;;;6.53;;
74510;SDS011;62991;50.040;18.400;2022-09-27T01:06:27;14.98;;;7.70;;
74510;SDS011;62991;50.040;18.400;2022-09-27T01:09:28;18.30;;;7.35;;
74510;SDS011;62991;50.040;18.400;2022-09-27T01:15:43;16.83;;;8.32;;
74510;SDS011;62991;50.040;18.400;2022-09-27T01:22:17;16.98;;;7.68;;
74510;SDS011;62991;50.040;18.400;2022-09-27T01:45:18;19.35;;;8.48;;
74510;SDS011;62991;50.040;18.400;2022-09-27T01:48:35;16.52;;;7.18;;
74510;SDS011;62991;50.040;18.400;2022-09-27T01:51:43;17.20;;;7.97;;
74510;SDS011;62991;50.040;18.400;2022-09-27T01:54:49;15.20;;;7.50;;
74510;SDS011;62991;50.040;18.400;2022-09-27T01:57:58;21.15;;;8.25;;
74510;SDS011;62991;50.040;18.400;2022-09-27T02:01:04;12.68;;;6.38;;
74510;SDS011;62991;50.040;18.400;2022-09-27T02:04:09;12.38;;;5.97;;
74510;SDS011;62991;50.040;18.400;2022-09-27T02:07:14;11.25;;;6.18;;
74510;SDS011;62991;50.040;18.400;2022-09-27T02:10:23;16.38;;;5.57;;
74510;SDS011;62991;50.040;18.400;2022-09-27T02:13:37;14.68;;;6.60;;
74510;SDS011;62991;50.040;18.400;2022-09-27T02:16:53;13.65;;;6.68;;
74510;SDS011;62991;50.040;18.400;2022-09-27T02:26:29;19.88;;;7.93;;
74510;SDS011;62991;50.040;18.400;2022-09-27T02:29:48;19.35;;;8.40;;
74510;SDS011;62991;50.040;18.400;2022-09-27T02:36:00;17.15;;;6.57;;
74510;SDS011;62991;50.040;18.400;2022-09-27T02:39:02;17.00;;;7.55;;
74510;SDS011;62991;50.040;18.400;2022-09-27T02:42:03;13.90;;;6.70;;
74510;SDS011;62991;50.040;18.400;2022-09-27T02:45:05;13.75;;;7.13;;
74510;SDS011;62991;50.040;18.400;2022-09-27T02:51:42;13.82;;;6.80;;
74510;SDS011;62991;50.040;18.400;2022-09-27T02:55:10;13.02;;;6.93;;
74510;SDS011;62991;50.040;18.400;2022-09-27T03:05:21;15.93;;;7.38;;
74510;SDS011;62991;50.040;18.400;2022-09-27T03:08:25;16.65;;;7.50;;
74510;SDS011;62991;50.040;18.400;2022-09-27T03:11:26;13.38;;;6.57;;
74510;SDS011;62991;50.040;18.400;2022-09-27T03:14:26;17.17;;;6.93;;
74510;SDS011;62991;50.040;18.400;2022-09-27T03:17:27;14.45;;;7.28;;
74510;SDS011;62991;50.040;18.400;2022-09-27T03:20:28;17.95;;;7.72;;
74510;SDS011;62991;50.040;18.400;2022-09-27T03:23:29;16.77;;;8.88;;
74510;SDS011;62991;50.040;18.400;2022-09-27T03:26:29;19.77;;;10.18;;
74510;SDS011;62991;50.040;18.400;2022-09-27T03:29:30;21.58;;;10.13;;
74510;SDS011;62991;50.040;18.400;2022-09-27T03:32:31;20.85;;;10.02;;
74510;SDS011;62991;50.040;18.400;2022-09-27T03:35:32;17.67;;;8.43;;
74510;SDS011;62991;50.040;18.400;2022-09-27T03:38:33;25.08;;;9.38;;
74510;SDS011;62991;50.040;18.400;2022-09-27T03:41:33;18.50;;;8.20;;
74510;SDS011;62991;50.040;18.400;2022-09-27T03:44:34;17.52;;;8.10;;
74510;SDS011;62991;50.040;18.400;2022-09-27T03:47:38;12.40;;;7.35;;
74510;SDS011;62991;50.040;18.400;2022-09-27T03:50:40;18.15;;;7.88;;
74510;SDS011;62991;50.040;18.400;2022-09-27T03:53:41;17.02;;;7.88;;
74510;SDS011;62991;50.040;18.400;2022-09-27T03:56:42;19.50;;;8.13;;
74510;SDS011;62991;50.040;18.400;2022-09-27T03:59:42;20.45;;;9.70;;
74510;SDS011;62991;50.040;18.400;2022-09-27T04:02:43;22.95;;;10.05;;
74510;SDS011;62991;50.040;18.400;2022-09-27T04:05:44;22.45;;;10.27;;
74510;SDS011;62991;50.040;18.400;2022-09-27T04:08:45;23.38;;;8.60;;
74510;SDS011;62991;50.040;18.400;2022-09-27T04:11:46;19.05;;;8.63;;
74510;SDS011;62991;50.040;18.400;2022-09-27T04:14:48;21.50;;;8.15;;
74510;SDS011;62991;50.040;18.400;2022-09-27T04:17:49;16.35;;;7.97;;
74510;SDS011;62991;50.040;18.400;2022-09-27T04:20:50;14.40;;;7.07;;
74510;SDS011;62991;50.040;18.400;2022-09-27T04:23:51;14.85;;;6.53;;
74510;SDS011;62991;50.040;18.400;2022-09-27T04:26:51;18.63;;;7.72;;
74510;SDS011;62991;50.040;18.400;2022-09-27T04:29:52;14.52;;;7.85;;
74510;SDS011;62991;50.040;18.400;2022-09-27T04:32:53;15.32;;;7.25;;
74510;SDS011;62991;50.040;18.400;2022-09-27T04:35:54;16.67;;;6.93;;
74510;SDS011;62991;50.040;18.400;2022-09-27T04:39:13;13.85;;;7.00;;
74510;SDS011;62991;50.040;18.400;2022-09-27T04:42:14;15.98;;;7.75;;
74510;SDS011;62991;50.040;18.400;2022-09-27T04:45:16;13.45;;;5.88;;
74510;SDS011;62991;50.040;18.400;2022-09-27T04:48:17;12.88;;;6.60;;
74510;SDS011;62991;50.040;18.400;2022-09-27T04:51:18;17.50;;;6.47;;
74510;SDS011;62991;50.040;18.400;2022-09-27T04:54:19;16.60;;;6.93;;
74510;SDS011;62991;50.040;18.400;2022-09-27T04:57:19;12.13;;;6.30;;
74510;SDS011;62991;50.040;18.400;2022-09-27T05:00:20;15.18;;;6.50;;
74510;SDS011;62991;50.040;18.400;2022-09-27T05:03:22;17.10;;;7.38;;
74510;SDS011;62991;50.040;18.400;2022-09-27T05:06:22;13.60;;;6.20;;
74510;SDS011;62991;50.040;18.400;2022-09-27T05:09:23;15.23;;;7.07;;
74510;SDS011;62991;50.040;18.400;2022-09-27T05:12:24;14.20;;;6.28;;
74510;SDS011;62991;50.040;18.400;2022-09-27T05:15:28;12.98;;;5.88;;
74510;SDS011;62991;50.040;18.400;2022-09-27T05:18:28;14.10;;;6.70;;
74510;SDS011;62991;50.040;18.400;2022-09-27T05:21:29;17.65;;;8.85;;
74510;SDS011;62991;50.040;18.400;2022-09-27T05:24:31;17.80;;;8.73;;
74510;SDS011;62991;50.040;18.400;2022-09-27T05:27:32;17.13;;;8.57;;
74510;SDS011;62991;50.040;18.400;2022-09-27T05:30:33;20.27;;;8.13;;
74510;SDS011;62991;50.040;18.400;2022-09-27T05:33:33;13.95;;;5.97;;
74510;SDS011;62991;50.040;18.400;2022-09-27T05:36:34;13.80;;;7.18;;
74510;SDS011;62991;50.040;18.400;2022-09-27T05:39:35;18.73;;;8.13;;
74510;SDS011;62991;50.040;18.400;2022-09-27T05:42:36;22.02;;;8.95;;
74510;SDS011;62991;50.040;18.400;2022-09-27T05:45:38;17.98;;;8.30;;
74510;SDS011;62991;50.040;18.400;2022-09-27T05:48:38;12.25;;;6.28;;
74510;SDS011;62991;50.040;18.400;2022-09-27T05:51:39;11.70;;;5.90;;
74510;SDS011;62991;50.040;18.400;2022-09-27T05:54:40;14.45;;;6.10;;
74510;SDS011;62991;50.040;18.400;2022-09-27T05:57:41;13.23;;;6.15;;
74510;SDS011;62991;50.040;18.400;2022-09-27T06:00:42;10.13;;;5.80;;
74510;SDS011;62991;50.040;18.400;2022-09-27T06:03:42;11.05;;;6.03;;
74510;SDS011;62991;50.040;18.400;2022-09-27T06:06:46;12.57;;;6.05;;
74510;SDS011;62991;50.040;18.400;2022-09-27T06:09:47;14.65;;;6.53;;
74510;SDS011;62991;50.040;18.400;2022-09-27T06:12:47;17.35;;;6.55;;
74510;SDS011;62991;50.040;18.400;2022-09-27T06:15:49;20.55;;;6.82;;
74510;SDS011;62991;50.040;18.400;2022-09-27T06:18:52;11.82;;;6.43;;
74510;SDS011;62991;50.040;18.400;2022-09-27T06:21:53;12.00;;;6.43;;
74510;SDS011;62991;50.040;18.400;2022-09-27T06:24:53;12.40;;;6.38;;
74510;SDS011;62991;50.040;18.400;2022-09-27T06:27:54;15.75;;;6.45;;
74510;SDS011;62991;50.040;18.400;2022-09-27T06:30:55;13.65;;;6.88;;
74510;SDS011;62991;50.040;18.400;2022-09-27T06:33:56;13.00;;;5.93;;
74510;SDS011;62991;50.040;18.400;2022-09-27T06:36:56;13.60;;;6.60;;
74510;SDS011;62991;50.040;18.400;2022-09-27T06:39:57;13.30;;;6.47;;
74510;SDS011;62991;50.040;18.400;2022-09-27T06:43:02;9.70;;;5.13;;
74510;SDS011;62991;50.040;18.400;2022-09-27T06:46:03;12.57;;;5.72;;
74510;SDS011;62991;50.040;18.400;2022-09-27T06:49:05;9.57;;;5.55;;
74510;SDS011;62991;50.040;18.400;2022-09-27T06:52:06;12.88;;;5.38;;
74510;SDS011;62991;50.040;18.400;2022-09-27T06:55:07;12.55;;;5.80;;
74510;SDS011;62991;50.040;18.400;2022-09-27T06:58:09;13.25;;;6.03;;
74510;SDS011;62991;50.040;18.400;2022-09-27T07:01:29;14.55;;;6.10;;
74510;SDS011;62991;50.040;18.400;2022-09-27T07:04:30;14.13;;;6.13;;
74510;SDS011;62991;50.040;18.400;2022-09-27T07:07:31;10.23;;;5.32;;
74510;SDS011;62991;50.040;18.400;2022-09-27T07:10:33;13.55;;;6.15;;
74510;SDS011;62991;50.040;18.400;2022-09-27T07:13:36;16.02;;;5.88;;
74510;SDS011;62991;50.040;18.400;2022-09-27T07:16:41;15.45;;;6.05;;
74510;SDS011;62991;50.040;18.400;2022-09-27T07:19:42;14.32;;;6.22;;
74510;SDS011;62991;50.040;18.400;2022-09-27T07:22:43;12.35;;;6.18;;
74510;SDS011;62991;50.040;18.400;2022-09-27T07:25:44;12.70;;;5.88;;
74510;SDS011;62991;50.040;18.400;2022-09-27T07:28:45;12.95;;;6.07;;
74510;SDS011;62991;50.040;18.400;2022-09-27T07:31:46;13.35;;;6.07;;
74510;SDS011;62991;50.040;18.400;2022-09-27T07:34:47;15.80;;;6.53;;
74510;SDS011;62991;50.040;18.400;2022-09-27T07:37:47;10.77;;;5.55;;
74510;SDS011;62991;50.040;18.400;2022-09-27T07:40:48;11.48;;;5.50;;
74510;SDS011;62991;50.040;18.400;2022-09-27T07:43:49;11.32;;;4.93;;
74510;SDS011;62991;50.040;18.400;2022-09-27T07:46:49;12.80;;;4.68;;
74510;SDS011;62991;50.040;18.400;2022-09-27T07:49:50;14.18;;;5.25;;
74510;SDS011;62991;50.040;18.400;2022-09-27T07:52:51;9.50;;;4.88;;
74510;SDS011;62991;50.040;18.400;2022-09-27T07:55:52;10.60;;;4.65;;
74510;SDS011;62991;50.040;18.400;2022-09-27T07:58:53;8.80;;;4.53;;
74510;SDS011;62991;50.040;18.400;2022-09-27T08:01:54;12.63;;;5.03;;
74510;SDS011;62991;50.040;18.400;2022-09-27T08:04:55;8.88;;;4.28;;
74510;SDS011;62991;50.040;18.400;2022-09-27T08:07:56;11.32;;;4.95;;
74510;SDS011;62991;50.040;18.400;2022-09-27T08:10:56;8.45;;;4.18;;
74510;SDS011;62991;50.040;18.400;2022-09-27T08:13:57;10.35;;;4.43;;
74510;SDS011;62991;50.040;18.400;2022-09-27T08:16:58;11.20;;;4.57;;
74510;SDS011;62991;50.040;18.400;2022-09-27T08:19:59;12.25;;;4.43;;
74510;SDS011;62991;50.040;18.400;2022-09-27T08:23:04;13.25;;;5.03;;
74510;SDS011;62991;50.040;18.400;2022-09-27T08:26:05;9.55;;;4.30;;
74510;SDS011;62991;50.040;18.400;2022-09-27T08:29:06;9.52;;;4.80;;
74510;SDS011;62991;50.040;18.400;2022-09-27T08:32:07;7.80;;;4.00;;
74510;SDS011;62991;50.040;18.400;2022-09-27T08:35:09;8.52;;;4.25;;
74510;SDS011;62991;50.040;18.400;2022-09-27T08:38:10;9.95;;;4.07;;
74510;SDS011;62991;50.040;18.400;2022-09-27T08:47:52;8.43;;;4.38;;
74510;SDS011;62991;50.040;18.400;2022-09-27T08:50:56;9.27;;;4.55;;
74510;SDS011;62991;50.040;18.400;2022-09-27T08:54:01;9.63;;;4.50;;
74510;SDS011;62991;50.040;18.400;2022-09-27T08:57:10;8.40;;;3.97;;
74510;SDS011;62991;50.040;18.400;2022-09-27T09:00:12;11.63;;;4.45;;
74510;SDS011;62991;50.040;18.400;2022-09-27T09:03:35;11.00;;;4.53;;
74510;SDS011;62991;50.040;18.400;2022-09-27T09:06:46;10.88;;;4.70;;
74510;SDS011;62991;50.040;18.400;2022-09-27T09:10:45;12.02;;;4.93;;
74510;SDS011;62991;50.040;18.400;2022-09-27T09:14:12;14.82;;;4.28;;
74510;SDS011;62991;50.040;18.400;2022-09-27T09:21:21;14.57;;;5.22;;
74510;SDS011;62991;50.040;18.400;2022-09-27T09:31:20;13.35;;;5.30;;
74510;SDS011;62991;50.040;18.400;2022-09-27T09:34:25;34.75;;;6.35;;
74510;SDS011;62991;50.040;18.400;2022-09-27T09:37:57;30.80;;;5.35;;
74510;SDS011;62991;50.040;18.400;2022-09-27T09:44:47;17.20;;;7.00;;
74510;SDS011;62991;50.040;18.400;2022-09-27T09:55:03;40.72;;;10.43;;
74510;SDS011;62991;50.040;18.400;2022-09-27T10:01:25;28.98;;;8.60;;
74510;SDS011;62991;50.040;18.400;2022-09-27T10:04:36;22.02;;;5.90;;
74510;SDS011;62991;50.040;18.400;2022-09-27T10:07:37;20.85;;;5.40;;
74510;SDS011;62991;50.040;18.400;2022-09-27T10:10:38;15.27;;;5.55;;
74510;SDS011;62991;50.040;18.400;2022-09-27T10:13:39;15.25;;;4.80;;
74510;SDS011;62991;50.040;18.400;2022-09-27T10:16:41;13.27;;;4.72;;
74510;SDS011;62991;50.040;18.400;2022-09-27T10:19:47;18.33;;;4.60;;
74510;SDS011;62991;50.040;18.400;2022-09-27T10:22:56;10.88;;;4.45;;
74510;SDS011;62991;50.040;18.400;2022-09-27T10:26:03;8.95;;;4.07;;
74510;SDS011;62991;50.040;18.400;2022-09-27T10:32:29;8.82;;;3.90;;
74510;SDS011;62991;50.040;18.400;2022-09-27T10:35:35;6.85;;;3.60;;
74510;SDS011;62991;50.040;18.400;2022-09-27T10:38:39;6.25;;;3.03;;
74510;SDS011;62991;50.040;18.400;2022-09-27T10:41:58;5.57;;;3.03;;
74510;SDS011;62991;50.040;18.400;2022-09-27T10:48:32;6.07;;;3.10;;
74510;SDS011;62991;50.040;18.400;2022-09-27T10:51:34;6.75;;;3.28;;
74510;SDS011;62991;50.040;18.400;2022-09-27T10:54:36;10.00;;;4.30;;
74510;SDS011;62991;50.040;18.400;2022-09-27T10:57:38;6.70;;;3.22;;
74510;SDS011;62991;50.040;18.400;2022-09-27T11:00:39;10.48;;;4.43;;
74510;SDS011;62991;50.040;18.400;2022-09-27T11:03:47;17.52;;;6.03;;
74510;SDS011;62991;50.040;18.400;2022-09-27T11:07:05;11.52;;;4.00;;
74510;SDS011;62991;50.040;18.400;2022-09-27T11:10:30;10.57;;;4.35;;
74510;SDS011;62991;50.040;18.400;2022-09-27T11:13:33;11.88;;;4.40;;
74510;SDS011;62991;50.040;18.400;2022-09-27T11:16:44;12.05;;;4.70;;
74510;SDS011;62991;50.040;18.400;2022-09-27T11:23:15;6.25;;;3.28;;
74510;SDS011;62991;50.040;18.400;2022-09-27T11:46:16;7.75;;;3.67;;
74510;SDS011;62991;50.040;18.400;2022-09-27T11:49:56;5.63;;;3.08;;
74510;SDS011;62991;50.040;18.400;2022-09-27T11:56:53;6.85;;;4.00;;
74510;SDS011;62991;50.040;18.400;2022-09-27T12:06:40;6.38;;;3.30;;
74510;SDS011;62991;50.040;18.400;2022-09-27T12:09:44;6.95;;;3.25;;
74510;SDS011;62991;50.040;18.400;2022-09-27T12:12:50;5.65;;;3.40;;
74510;SDS011;62991;50.040;18.400;2022-09-27T12:15:54;5.90;;;3.05;;
74510;SDS011;62991;50.040;18.400;2022-09-27T12:18:56;18.58;;;7.25;;
74510;SDS011;62991;50.040;18.400;2022-09-27T12:25:04;16.27;;;7.18;;
74510;SDS011;62991;50.040;18.400;2022-09-27T12:28:07;14.20;;;6.90;;
74510;SDS011;62991;50.040;18.400;2022-09-27T12:31:42;9.52;;;5.05;;
74510;SDS011;62991;50.040;18.400;2022-09-27T12:35:18;16.60;;;7.97;;
74510;SDS011;62991;50.040;18.400;2022-09-27T12:41:56;7.60;;;3.50;;
74510;SDS011;62991;50.040;18.400;2022-09-27T12:48:28;8.77;;;3.45;;
74510;SDS011;62991;50.040;18.400;2022-09-27T12:51:34;6.13;;;2.58;;
74510;SDS011;62991;50.040;18.400;2022-09-27T12:54:49;8.55;;;5.05;;
74510;SDS011;62991;50.040;18.400;2022-09-27T13:11:42;5.00;;;2.10;;
74510;SDS011;62991;50.040;18.400;2022-09-27T13:15:01;9.15;;;2.88;;
74510;SDS011;62991;50.040;18.400;2022-09-27T13:24:53;10.25;;;4.32;;
74510;SDS011;62991;50.040;18.400;2022-09-27T13:27:54;8.82;;;3.30;;
74510;SDS011;62991;50.040;18.400;2022-09-27T13:30:55;10.98;;;3.30;;
74510;SDS011;62991;50.040;18.400;2022-09-27T13:34:02;8.27;;;3.13;;
74510;SDS011;62991;50.040;18.400;2022-09-27T13:37:25;9.85;;;3.95;;
74510;SDS011;62991;50.040;18.400;2022-09-27T13:40:36;7.30;;;2.95;;
74510;SDS011;62991;50.040;18.400;2022-09-27T13:47:46;7.93;;;3.80;;
74510;SDS011;62991;50.040;18.400;2022-09-27T13:50:48;16.23;;;6.00;;
74510;SDS011;62991;50.040;18.400;2022-09-27T13:54:02;11.77;;;3.97;;
74510;SDS011;62991;50.040;18.400;2022-09-27T13:57:36;8.70;;;3.08;;
74510;SDS011;62991;50.040;18.400;2022-09-27T14:00:49;4.70;;;2.45;;
74510;SDS011;62991;50.040;18.400;2022-09-27T14:03:52;6.47;;;2.70;;
74510;SDS011;62991;50.040;18.400;2022-09-27T14:06:56;7.68;;;3.85;;
74510;SDS011;62991;50.040;18.400;2022-09-27T14:09:59;7.60;;;3.88;;
74510;SDS011;62991;50.040;18.400;2022-09-27T14:13:01;11.50;;;5.22;;
74510;SDS011;62991;50.040;18.400;2022-09-27T14:16:04;14.95;;;7.07;;
74510;SDS011;62991;50.040;18.400;2022-09-27T14:19:08;14.48;;;6.38;;
74510;SDS011;62991;50.040;18.400;2022-09-27T14:22:18;20.48;;;9.18;;
74510;SDS011;62991;50.040;18.400;2022-09-27T14:25:21;12.32;;;5.90;;
74510;SDS011;62991;50.040;18.400;2022-09-27T14:31:24;14.70;;;4.65;;
74510;SDS011;62991;50.040;18.400;2022-09-27T14:34:24;23.63;;;8.10;;
74510;SDS011;62991;50.040;18.400;2022-09-27T14:37:25;12.68;;;6.25;;
74510;SDS011;62991;50.040;18.400;2022-09-27T14:40:26;11.60;;;5.47;;
74510;SDS011;62991;50.040;18.400;2022-09-27T14:43:28;22.17;;;9.18;;
74510;SDS011;62991;50.040;18.400;2022-09-27T14:46:31;12.25;;;5.15;;
74510;SDS011;62991;50.040;18.400;2022-09-27T14:49:31;23.05;;;8.85;;
74510;SDS011;62991;50.040;18.400;2022-09-27T14:52:33;9.05;;;4.45;;
74510;SDS011;62991;50.040;18.400;2022-09-27T14:55:34;9.93;;;5.20;;
74510;SDS011;62991;50.040;18.400;2022-09-27T14:58:36;15.95;;;7.55;;
74510;SDS011;62991;50.040;18.400;2022-09-27T15:01:36;19.88;;;8.07;;
74510;SDS011;62991;50.040;18.400;2022-09-27T15:04:41;20.05;;;7.82;;
74510;SDS011;62991;50.040;18.400;2022-09-27T15:07:45;13.35;;;5.35;;
74510;SDS011;62991;50.040;18.400;2022-09-27T15:10:47;13.38;;;5.85;;
74510;SDS011;62991;50.040;18.400;2022-09-27T15:13:49;16.45;;;7.07;;
74510;SDS011;62991;50.040;18.400;2022-09-27T15:16:51;19.65;;;8.20;;
74510;SDS011;62991;50.040;18.400;2022-09-27T15:20:00;17.00;;;7.95;;
74510;SDS011;62991;50.040;18.400;2022-09-27T15:23:24;14.35;;;6.60;;
74510;SDS011;62991;50.040;18.400;2022-09-27T15:26:43;17.05;;;6.07;;
74510;SDS011;62991;50.040;18.400;2022-09-27T15:29:49;14.48;;;7.15;;
74510;SDS011;62991;50.040;18.400;2022-09-27T15:32:53;15.75;;;7.72;;
74510;SDS011;62991;50.040;18.400;2022-09-27T15:35:56;17.48;;;8.55;;
74510;SDS011;62991;50.040;18.400;2022-09-27T15:39:07;12.43;;;6.50;;
74510;SDS011;62991;50.040;18.400;2022-09-27T15:42:12;28.45;;;10.00;;
74510;SDS011;62991;50.040;18.400;2022-09-27T15:45:29;28.90;;;10.38;;
74510;SDS011;62991;50.040;18.400;2022-09-27T15:48:30;17.60;;;8.02;;
74510;SDS011;62991;50.040;18.400;2022-09-27T15:51:39;25.77;;;9.43;;
74510;SDS011;62991;50.040;18.400;2022-09-27T15:54:40;21.35;;;9.05;;
74510;SDS011;62991;50.040;18.400;2022-09-27T15:57:42;39.22;;;15.48;;
74510;SDS011;62991;50.040;18.400;2022-09-27T16:00:57;27.83;;;11.40;;
74510;SDS011;62991;50.040;18.400;2022-09-27T16:04:07;29.80;;;11.82;;
74510;SDS011;62991;50.040;18.400;2022-09-27T16:07:08;41.50;;;16.00;;
74510;SDS011;62991;50.040;18.400;2022-09-27T16:13:16;34.08;;;12.68;;
74510;SDS011;62991;50.040;18.400;2022-09-27T16:16:18;42.58;;;13.85;;
74510;SDS011;62991;50.040;18.400;2022-09-27T16:19:20;31.60;;;13.63;;
74510;SDS011;62991;50.040;18.400;2022-09-27T16:22:21;29.90;;;12.93;;
74510;SDS011;62991;50.040;18.400;2022-09-27T16:25:22;31.67;;;11.57;;
74510;SDS011;62991;50.040;18.400;2022-09-27T16:28:24;20.33;;;10.10;;
74510;SDS011;62991;50.040;18.400;2022-09-27T16:31:24;22.88;;;9.50;;
74510;SDS011;62991;50.040;18.400;2022-09-27T16:34:25;19.73;;;7.90;;
74510;SDS011;62991;50.040;18.400;2022-09-27T16:37:27;23.52;;;10.70;;
74510;SDS011;62991;50.040;18.400;2022-09-27T16:40:29;55.40;;;20.73;;
74510;SDS011;62991;50.040;18.400;2022-09-27T16:43:31;54.75;;;19.40;;
74510;SDS011;62991;50.040;18.400;2022-09-27T16:46:31;41.90;;;15.13;;
74510;SDS011;62991;50.040;18.400;2022-09-27T16:49:34;21.60;;;8.98;;
74510;SDS011;62991;50.040;18.400;2022-09-27T16:52:53;29.75;;;10.25;;
74510;SDS011;62991;50.040;18.400;2022-09-27T16:55:57;26.30;;;11.40;;
74510;SDS011;62991;50.040;18.400;2022-09-27T16:58:59;29.75;;;12.23;;
74510;SDS011;62991;50.040;18.400;2022-09-27T17:02:02;44.78;;;16.77;;
74510;SDS011;62991;50.040;18.400;2022-09-27T17:05:04;50.67;;;16.50;;
74510;SDS011;62991;50.040;18.400;2022-09-27T17:08:05;44.78;;;15.65;;
74510;SDS011;62991;50.040;18.400;2022-09-27T17:11:06;36.60;;;13.95;;
74510;SDS011;62991;50.040;18.400;2022-09-27T17:14:09;56.10;;;20.83;;
74510;SDS011;62991;50.040;18.400;2022-09-27T17:17:13;52.88;;;17.08;;
74510;SDS011;62991;50.040;18.400;2022-09-27T17:20:14;42.72;;;15.60;;
74510;SDS011;62991;50.040;18.400;2022-09-27T17:23:14;44.25;;;16.70;;
74510;SDS011;62991;50.040;18.400;2022-09-27T17:29:17;33.85;;;13.98;;
74510;SDS011;62991;50.040;18.400;2022-09-27T17:32:18;45.70;;;15.30;;
74510;SDS011;62991;50.040;18.400;2022-09-27T17:35:23;25.30;;;10.98;;
74510;SDS011;62991;50.040;18.400;2022-09-27T17:38:24;40.42;;;13.90;;
74510;SDS011;62991;50.040;18.400;2022-09-27T17:41:25;33.53;;;13.10;;
74510;SDS011;62991;50.040;18.400;2022-09-27T17:44:27;26.88;;;11.70;;
74510;SDS011;62991;50.040;18.400;2022-09-27T17:47:27;22.48;;;9.80;;
74510;SDS011;62991;50.040;18.400;2022-09-27T17:50:47;19.50;;;8.57;;
74510;SDS011;62991;50.040;18.400;2022-09-27T17:53:47;21.20;;;9.07;;
74510;SDS011;62991;50.040;18.400;2022-09-27T17:56:49;23.85;;;10.38;;
74510;SDS011;62991;50.040;18.400;2022-09-27T17:59:50;23.60;;;9.90;;
74510;SDS011;62991;50.040;18.400;2022-09-27T18:02:52;15.23;;;7.43;;
74510;SDS011;62991;50.040;18.400;2022-09-27T18:05:53;13.77;;;4.40;;
74510;SDS011;62991;50.040;18.400;2022-09-27T18:08:54;12.27;;;5.00;;
74510;SDS011;62991;50.040;18.400;2022-09-27T18:11:55;10.32;;;4.85;;
74510;SDS011;62991;50.040;18.400;2022-09-27T18:14:56;10.50;;;4.22;;
74510;SDS011;62991;50.040;18.400;2022-09-27T18:17:59;14.52;;;5.00;;
74510;SDS011;62991;50.040;18.400;2022-09-27T18:21:02;28.13;;;10.88;;
74510;SDS011;62991;50.040;18.400;2022-09-27T18:24:06;19.52;;;8.45;;
74510;SDS011;62991;50.040;18.400;2022-09-27T18:27:07;18.13;;;6.53;;
74510;SDS011;62991;50.040;18.400;2022-09-27T18:30:08;12.85;;;5.05;;
74510;SDS011;62991;50.040;18.400;2022-09-27T18:33:10;19.13;;;7.18;;
74510;SDS011;62991;50.040;18.400;2022-09-27T18:36:12;17.08;;;7.00;;
74510;SDS011;62991;50.040;18.400;2022-09-27T18:39:18;16.52;;;5.80;;
74510;SDS011;62991;50.040;18.400;2022-09-27T18:42:18;21.17;;;6.35;;
74510;SDS011;62991;50.040;18.400;2022-09-27T18:45:19;14.50;;;4.63;;
74510;SDS011;62991;50.040;18.400;2022-09-27T18:48:20;15.18;;;5.90;;
74510;SDS011;62991;50.040;18.400;2022-09-27T18:51:24;26.63;;;9.73;;
74510;SDS011;62991;50.040;18.400;2022-09-27T18:54:26;60.80;;;20.20;;
74510;SDS011;62991;50.040;18.400;2022-09-27T18:57:27;59.83;;;19.58;;
74510;SDS011;62991;50.040;18.400;2022-09-27T19:00:31;42.92;;;15.38;;
74510;SDS011;62991;50.040;18.400;2022-09-27T19:03:32;38.63;;;14.13;;
74510;SDS011;62991;50.040;18.400;2022-09-27T19:06:34;26.38;;;11.27;;
74510;SDS011;62991;50.040;18.400;2022-09-27T19:09:36;29.63;;;11.60;;
74510;SDS011;62991;50.040;18.400;2022-09-27T19:12:36;25.23;;;8.82;;
74510;SDS011;62991;50.040;18.400;2022-09-27T19:15:38;27.00;;;9.77;;
74510;SDS011;62991;50.040;18.400;2022-09-27T19:18:39;33.55;;;10.75;;
74510;SDS011;62991;50.040;18.400;2022-09-27T19:21:40;29.27;;;10.18;;
74510;SDS011;62991;50.040;18.400;2022-09-27T19:24:41;36.28;;;11.57;;
74510;SDS011;62991;50.040;18.400;2022-09-27T19:27:42;41.33;;;12.15;;
74510;SDS011;62991;50.040;18.400;2022-09-27T19:30:43;24.35;;;8.98;;
74510;SDS011;62991;50.040;18.400;2022-09-27T19:33:44;19.40;;;6.10;;
74510;SDS011;62991;50.040;18.400;2022-09-27T19:36:45;16.98;;;7.15;;
74510;SDS011;62991;50.040;18.400;2022-09-27T19:39:46;23.23;;;8.25;;
74510;SDS011;62991;50.040;18.400;2022-09-27T19:42:50;22.35;;;8.27;;
74510;SDS011;62991;50.040;18.400;2022-09-27T19:48:52;22.83;;;9.27;;
74510;SDS011;62991;50.040;18.400;2022-09-27T19:51:53;17.65;;;7.85;;
74510;SDS011;62991;50.040;18.400;2022-09-27T19:54:53;19.70;;;6.95;;
74510;SDS011;62991;50.040;18.400;2022-09-27T19:57:54;13.65;;;6.72;;
74510;SDS011;62991;50.040;18.400;2022-09-27T20:00:56;17.13;;;6.90;;
74510;SDS011;62991;50.040;18.400;2022-09-27T20:04:01;14.07;;;5.82;;
74510;SDS011;62991;50.040;18.400;2022-09-27T20:07:02;16.33;;;5.55;;
74510;SDS011;62991;50.040;18.400;2022-09-27T20:10:03;22.25;;;7.68;;
74510;SDS011;62991;50.040;18.400;2022-09-27T20:13:04;22.58;;;8.38;;
74510;SDS011;62991;50.040;18.400;2022-09-27T20:16:09;21.23;;;8.18;;
74510;SDS011;62991;50.040;18.400;2022-09-27T20:19:14;24.73;;;8.55;;
74510;SDS011;62991;50.040;18.400;2022-09-27T20:22:15;18.88;;;6.80;;
74510;SDS011;62991;50.040;18.400;2022-09-27T20:25:16;12.93;;;6.03;;
74510;SDS011;62991;50.040;18.400;2022-09-27T20:28:17;21.65;;;7.35;;
74510;SDS011;62991;50.040;18.400;2022-09-27T20:31:18;25.85;;;9.25;;
74510;SDS011;62991;50.040;18.400;2022-09-27T20:34:21;21.80;;;8.30;;
74510;SDS011;62991;50.040;18.400;2022-09-27T20:37:22;21.40;;;9.07;;
74510;SDS011;62991;50.040;18.400;2022-09-27T20:40:23;20.70;;;8.45;;
74510;SDS011;62991;50.040;18.400;2022-09-27T20:43:24;22.48;;;9.20;;